Time;durP1;ratioP1;P1;durP2;ratioP2;P2;SDS_P1;SDS_P2;PMS_P1;PMS_P2;Temp;Humidity;BMP_temperature;BMP_pressure;BME280_temperature;BME280_humidity;BME280_pressure;Samples;Min_cycle;Max_cycle;Signal;HPM_P1;HPM_P2
2022/12/09 00:02:02;;;;;;;239.07;119.60;;;;;;;-0.15;100.00;100579.22;5054912;28;20033;-50
2022/12/09 00:04:27;;;;;;;238.25;121.85;;;;;;;-0.16;100.00;100574.94;5054298;28;20103;-48
2022/12/09 00:06:52;;;;;;;275.42;140.77;;;;;;;-0.15;100.00;100574.16;5054559;28;20488;-48
2022/12/09 00:09:17;;;;;;;227.88;118.28;;;;;;;-0.12;100.00;100576.88;5054862;28;20439;-46
2022/12/09 00:11:43;;;;;;;235.70;123.22;;;;;;;-0.14;100.00;100578.47;5054162;28;20021;-49
2022/12/09 00:14:10;;;;;;;240.65;124.40;;;;;;;-0.18;100.00;100577.38;5054530;28;20021;-49
2022/12/09 00:16:36;;;;;;;225.15;117.88;;;;;;;-0.15;100.00;100581.75;5054525;28;20032;-50
2022/12/09 00:19:01;;;;;;;223.85;116.18;;;;;;;-0.14;100.00;100570.88;5054268;28;20021;-47
2022/12/09 00:21:30;;;;;;;231.55;117.93;;;;;;;-0.15;100.00;100571.63;5054323;28;20025;-49
2022/12/09 00:23:57;;;;;;;258.20;131.18;;;;;;;-0.13;100.00;100572.63;5054509;28;20361;-50
2022/12/09 00:26:24;;;;;;;230.47;117.20;;;;;;;-0.14;100.00;100568.31;5054412;28;20021;-46
2022/12/09 00:28:50;;;;;;;230.43;118.80;;;;;;;-0.11;100.00;100563.47;5054226;28;20043;-45
2022/12/09 00:31:18;;;;;;;242.20;122.70;;;;;;;-0.12;100.00;100570.97;5054498;28;20777;-47
2022/12/09 00:33:44;;;;;;;240.88;120.75;;;;;;;-0.09;100.00;100571.16;5053558;28;20028;-48
2022/12/09 00:36:13;;;;;;;262.45;128.45;;;;;;;-0.09;100.00;100571.16;5054127;28;20061;-49
2022/12/09 00:38:38;;;;;;;252.88;123.65;;;;;;;-0.08;100.00;100573.81;5054195;28;20048;-48
2022/12/09 00:41:04;;;;;;;243.38;125.03;;;;;;;-0.07;100.00;100569.63;5053915;28;20021;-49
2022/12/09 00:43:30;;;;;;;237.73;122.80;;;;;;;-0.02;100.00;100574.19;5054228;28;20116;-47
2022/12/09 00:45:55;;;;;;;237.18;121.63;;;;;;;0.04;100.00;100576.28;5054256;28;20036;-49
2022/12/09 00:48:21;;;;;;;231.35;117.88;;;;;;;0.06;100.00;100579.78;5053552;28;20029;-47
2022/12/09 00:50:46;;;;;;;243.35;123.38;;;;;;;0.10;100.00;100578.34;5053437;28;20510;-48
2022/12/09 00:53:11;;;;;;;233.07;118.88;;;;;;;0.15;100.00;100574.47;5053382;28;20025;-47
2022/12/09 00:55:37;;;;;;;245.88;123.70;;;;;;;0.15;100.00;100577.00;5053916;28;20027;-49
2022/12/09 00:58:02;;;;;;;234.70;117.03;;;;;;;0.13;100.00;100574.38;5053470;28;20354;-49
2022/12/09 01:00:28;;;;;;;240.35;119.47;;;;;;;0.14;100.00;100570.16;5053402;28;20057;-48
2022/12/09 01:02:53;;;;;;;239.85;120.97;;;;;;;0.18;100.00;100571.25;5053463;28;20028;-47
2022/12/09 01:05:18;;;;;;;236.27;118.07;;;;;;;0.20;100.00;100570.59;5053724;28;20021;-48
2022/12/09 01:07:44;;;;;;;250.82;122.93;;;;;;;0.24;100.00;100572.53;5052863;28;20033;-48
2022/12/09 01:10:10;;;;;;;252.80;130.35;;;;;;;0.16;100.00;100578.78;5053618;28;20031;-48
2022/12/09 01:12:35;;;;;;;254.57;126.03;;;;;;;0.16;100.00;100568.63;5053515;28;20111;-50
2022/12/09 01:15:02;;;;;;;252.63;133.45;;;;;;;0.15;100.00;100574.47;5053172;28;20107;-48
2022/12/09 01:17:27;;;;;;;252.38;122.43;;;;;;;0.22;100.00;100569.03;5053354;28;20057;-48
2022/12/09 01:19:52;;;;;;;248.88;122.03;;;;;;;0.28;100.00;100569.44;5053234;28;20057;-49
2022/12/09 01:22:17;;;;;;;250.68;121.60;;;;;;;0.25;100.00;100573.44;5053091;28;20091;-49
2022/12/09 01:24:43;;;;;;;240.65;122.18;;;;;;;0.25;100.00;100579.38;5053074;28;20032;-49
2022/12/09 01:27:08;;;;;;;238.55;120.75;;;;;;;0.23;100.00;100570.78;5053356;28;20039;-48
2022/12/09 01:29:34;;;;;;;244.27;117.97;;;;;;;0.21;100.00;100587.56;5052581;28;20025;-49
2022/12/09 01:31:59;;;;;;;254.75;119.25;;;;;;;0.19;100.00;100583.16;5053319;28;20410;-49
2022/12/09 01:34:25;;;;;;;278.80;128.23;;;;;;;0.15;100.00;100584.59;5053260;28;20186;-48
2022/12/09 01:36:50;;;;;;;287.00;128.77;;;;;;;0.12;100.00;100579.34;5052326;28;20089;-49
2022/12/09 01:39:16;;;;;;;274.05;130.30;;;;;;;0.12;100.00;100579.34;5053238;28;20063;-46
2022/12/09 01:41:41;;;;;;;286.02;132.82;;;;;;;0.09;100.00;100584.19;5052922;28;20029;-49
2022/12/09 01:44:24;;;;;;;313.88;152.65;;;;;;;0.10;100.00;100583.41;5052640;28;20025;-48
2022/12/09 01:46:54;;;;;;;308.30;147.27;;;;;;;0.19;100.00;100581.50;5052503;28;20472;-49
2022/12/09 01:49:24;;;;;;;308.95;139.77;;;;;;;0.15;100.00;100587.13;5052595;28;20025;-48
2022/12/09 01:52:13;;;;;;;299.17;134.02;;;;;;;0.20;100.00;100592.53;5052996;28;20075;-48
2022/12/09 01:54:41;;;;;;;317.33;135.68;;;;;;;0.17;100.00;100595.75;5052630;28;20024;-47
2022/12/09 01:57:07;;;;;;;307.15;134.63;;;;;;;0.20;100.00;100590.00;5052474;28;20096;-46
2022/12/09 01:59:32;;;;;;;301.13;134.35;;;;;;;0.24;100.00;100589.41;5052140;28;20143;-49
2022/12/09 02:02:01;;;;;;;304.75;138.65;;;;;;;0.27;100.00;100587.97;5053040;28;20028;-49
2022/12/09 02:04:28;;;;;;;311.27;137.30;;;;;;;0.29;100.00;100581.31;5051957;28;20076;-49
2022/12/09 02:06:55;;;;;;;310.73;134.75;;;;;;;0.28;100.00;100584.63;5052199;28;20377;-48
2022/12/09 02:09:21;;;;;;;318.92;139.55;;;;;;;0.29;100.00;100586.41;5052164;28;20041;-49
2022/12/09 02:11:58;;;;;;;314.73;136.60;;;;;;;0.27;100.00;100592.16;5051784;28;20032;-49
2022/12/09 02:14:34;;;;;;;330.13;138.47;;;;;;;0.31;100.00;100591.56;5052783;28;20057;-49
2022/12/09 02:17:10;;;;;;;316.38;137.07;;;;;;;0.35;100.00;100587.59;5052857;28;20279;-49
2022/12/09 02:19:54;;;;;;;362.95;144.38;;;;;;;0.31;100.00;100587.41;5051960;28;20025;-49
2022/12/09 02:22:25;;;;;;;338.38;140.20;;;;;;;0.33;100.00;100583.28;5052346;28;20037;-49
2022/12/09 02:25:01;;;;;;;351.42;144.13;;;;;;;0.35;100.00;100579.97;5052028;28;20064;-50
2022/12/09 02:27:31;;;;;;;366.95;143.20;;;;;;;0.34;100.00;100584.19;5052623;28;20080;-49
2022/12/09 02:30:06;;;;;;;415.27;147.93;;;;;;;0.32;100.00;100586.63;5052698;28;20043;-48
2022/12/09 02:32:50;;;;;;;392.52;151.10;;;;;;;0.40;100.00;100588.78;5051862;28;20111;-48
2022/12/09 02:35:35;;;;;;;380.95;147.80;;;;;;;0.40;100.00;100586.22;5052536;28;20025;-48
2022/12/09 02:38:24;;;;;;;378.00;144.82;;;;;;;0.42;100.00;100587.22;5052692;28;20088;-49
2022/12/09 02:40:56;;;;;;;409.00;149.05;;;;;;;0.39;100.00;100589.53;5051494;28;20021;-48
2022/12/09 02:43:25;;;;;;;411.90;154.88;;;;;;;0.37;100.00;100588.56;5052164;28;20041;-47
2022/12/09 02:45:54;;;;;;;405.80;151.23;;;;;;;0.36;100.00;100589.34;5051817;28;20103;-49
2022/12/09 02:48:24;;;;;;;430.42;152.32;;;;;;;0.35;100.00;100585.06;5052242;28;20021;-48
2022/12/09 02:50:51;;;;;;;434.55;152.20;;;;;;;0.32;100.00;100578.13;5052156;28;20069;-50
2022/12/09 02:53:17;;;;;;;407.58;153.45;;;;;;;0.37;100.00;100583.50;5051742;28;20380;-49
2022/12/09 02:55:46;;;;;;;433.92;155.68;;;;;;;0.35;100.00;100579.97;5051711;28;20021;-49
2022/12/09 02:58:11;;;;;;;426.42;155.40;;;;;;;0.34;100.00;100568.97;5052291;28;20465;-49
2022/12/09 03:00:38;;;;;;;414.88;152.23;;;;;;;0.38;100.00;100567.53;5051552;28;20039;-48
2022/12/09 03:03:08;;;;;;;441.63;158.07;;;;;;;0.35;100.00;100565.66;5052128;28;20109;-46
2022/12/09 03:05:54;;;;;;;438.23;156.52;;;;;;;0.40;100.00;100571.03;5051717;28;20279;-49
2022/12/09 03:08:38;;;;;;;440.98;163.30;;;;;;;0.43;100.00;100566.16;5051660;28;20041;-47
2022/12/09 03:11:08;;;;;;;438.92;160.88;;;;;;;0.44;100.00;100570.44;5052146;28;20027;-48
2022/12/09 03:13:51;;;;;;;500.35;165.02;;;;;;;0.37;100.00;100566.63;5052079;28;20022;-50
2022/12/09 03:16:31;;;;;;;481.25;165.07;;;;;;;0.40;100.00;100564.31;5052119;28;20033;-49
2022/12/09 03:19:11;;;;;;;473.88;161.63;;;;;;;0.40;100.00;100558.34;5052447;28;20033;-48
2022/12/09 03:21:42;;;;;;;483.80;163.90;;;;;;;0.41;100.00;100552.50;5055032;28;20047;-49
2022/12/09 03:24:11;;;;;;;486.20;163.82;;;;;;;0.37;100.00;100556.47;5055546;28;20383;-47
2022/12/09 03:26:39;;;;;;;477.98;163.38;;;;;;;0.31;100.00;100558.59;5055524;28;20025;-46
2022/12/09 03:29:07;;;;;;;486.35;161.27;;;;;;;0.29;100.00;100555.97;5055102;28;20057;-49
2022/12/09 03:31:35;;;;;;;449.83;162.30;;;;;;;0.33;100.00;100552.88;5055267;28;20033;-49
2022/12/09 03:34:03;;;;;;;481.80;162.43;;;;;;;0.36;100.00;100546.25;5055555;28;20460;-50
2022/12/09 03:36:35;;;;;;;505.27;169.30;;;;;;;0.37;100.00;100543.81;5055118;28;20098;-48
2022/12/09 03:39:04;;;;;;;518.95;171.88;;;;;;;0.34;100.00;100548.69;5055276;28;20047;-48
2022/12/09 03:41:31;;;;;;;480.42;163.30;;;;;;;0.35;100.00;100545.38;5055264;28;20033;-50
2022/12/09 03:44:10;;;;;;;504.98;169.35;;;;;;;0.39;100.00;100537.19;5054910;28;20029;-49
2022/12/09 03:46:35;;;;;;;532.92;172.98;;;;;;;0.39;100.00;100538.84;5054784;28;20025;-49
2022/12/09 03:49:01;;;;;;;507.65;170.63;;;;;;;0.43;100.00;100535.75;5054980;28;20032;-49
2022/12/09 03:51:36;;;;;;;564.50;170.80;;;;;;;0.36;100.00;100536.97;5055136;28;20491;-46
2022/12/09 03:54:15;;;;;;;530.88;174.48;;;;;;;0.39;100.00;100538.84;5055264;28;20032;-50
2022/12/09 03:56:47;;;;;;;541.95;183.00;;;;;;;0.40;100.00;100543.13;5054338;28;20029;-47
2022/12/09 03:59:14;;;;;;;546.58;179.73;;;;;;;0.35;100.00;100539.41;5055004;28;20028;-47
2022/12/09 04:01:41;;;;;;;565.93;180.03;;;;;;;0.29;100.00;100540.78;5054797;28;20032;-49
2022/12/09 04:04:07;;;;;;;596.67;185.73;;;;;;;0.26;100.00;100538.06;5054303;28;20044;-50
2022/12/09 04:06:33;;;;;;;623.17;191.20;;;;;;;0.25;100.00;100541.34;5054393;28;20040;-49
2022/12/09 04:08:58;;;;;;;514.00;175.73;;;;;;;0.21;100.00;100549.53;5055181;28;20017;-49
2022/12/09 04:11:24;;;;;;;523.33;177.57;;;;;;;0.18;100.00;100539.19;5054326;28;20028;-49
2022/12/09 04:13:49;;;;;;;531.53;180.68;;;;;;;0.18;100.00;100540.84;5054580;28;20025;-46
2022/12/09 04:16:14;;;;;;;525.53;181.93;;;;;;;0.15;100.00;100532.25;5054866;28;20108;-48
2022/12/09 04:18:39;;;;;;;527.40;183.70;;;;;;;0.14;100.00;100538.13;5053962;28;20472;-49
2022/12/09 04:21:07;;;;;;;530.95;186.68;;;;;;;0.18;100.00;100535.78;5054376;28;20412;-49
2022/12/09 04:23:32;;;;;;;562.78;184.98;;;;;;;0.16;100.00;100533.16;5054505;28;20098;-48
2022/12/09 04:25:57;;;;;;;546.53;187.85;;;;;;;0.17;100.00;100539.97;5054300;28;20021;-46
2022/12/09 04:28:23;;;;;;;541.85;187.98;;;;;;;0.14;100.00;100538.13;5054528;28;20404;-48
2022/12/09 04:30:48;;;;;;;533.33;185.43;;;;;;;0.13;100.00;100530.41;5054172;28;20029;-49
2022/12/09 04:33:13;;;;;;;563.13;185.85;;;;;;;0.14;100.00;100542.28;5053782;28;20024;-49
2022/12/09 04:35:39;;;;;;;580.13;192.73;;;;;;;0.14;100.00;100529.63;5054003;28;20025;-50
2022/12/09 04:38:04;;;;;;;543.83;194.65;;;;;;;0.17;100.00;100534.91;5054294;28;20389;-47
2022/12/09 04:40:29;;;;;;;571.78;196.13;;;;;;;0.17;100.00;100529.84;5053834;28;20128;-49
2022/12/09 04:42:55;;;;;;;543.28;191.07;;;;;;;0.16;100.00;100531.47;5054061;28;20093;-49
2022/12/09 04:45:21;;;;;;;518.90;184.65;;;;;;;0.15;100.00;100532.25;5053887;28;20024;-49
2022/12/09 04:47:46;;;;;;;489.23;182.20;;;;;;;0.14;100.00;100528.00;5053696;28;20048;-48
2022/12/09 04:50:11;;;;;;;469.20;172.70;;;;;;;0.14;100.00;100522.03;5054126;28;20021;-48
2022/12/09 04:52:37;;;;;;;514.05;180.07;;;;;;;0.17;100.00;100527.31;5053221;28;20033;-49
2022/12/09 04:55:02;;;;;;;508.45;179.90;;;;;;;0.16;100.00;100525.53;5053996;28;20031;-49
2022/12/09 04:57:28;;;;;;;484.25;180.68;;;;;;;0.17;100.00;100524.78;5054141;28;20025;-47
2022/12/09 04:59:54;;;;;;;487.80;178.55;;;;;;;0.15;100.00;100531.38;5053251;28;20414;-50
2022/12/09 05:02:19;;;;;;;501.67;180.77;;;;;;;0.16;100.00;100536.56;5053751;28;20039;-49
2022/12/09 05:04:45;;;;;;;511.52;179.30;;;;;;;0.18;100.00;100536.66;5053492;28;20041;-49
2022/12/09 05:07:11;;;;;;;502.27;180.00;;;;;;;0.18;100.00;100531.56;5053380;28;20017;-49
2022/12/09 05:09:36;;;;;;;522.13;183.05;;;;;;;0.19;100.00;100535.00;5053418;28;20086;-48
2022/12/09 05:12:01;;;;;;;493.48;180.48;;;;;;;0.26;100.00;100534.63;5053939;28;20021;-48
2022/12/09 05:14:27;;;;;;;537.75;186.20;;;;;;;0.26;100.00;100537.16;5053304;28;20071;-48
2022/12/09 05:16:52;;;;;;;497.60;176.27;;;;;;;0.25;100.00;100536.28;5053221;28;20379;-50
2022/12/09 05:19:17;;;;;;;511.08;178.27;;;;;;;0.24;100.00;100537.06;5053558;28;20476;-49
2022/12/09 05:21:43;;;;;;;467.50;172.65;;;;;;;0.23;100.00;100532.75;5052560;28;20029;-49
2022/12/09 05:24:09;;;;;;;505.88;174.85;;;;;;;0.18;100.00;100536.66;5053326;28;20025;-48
2022/12/09 05:26:34;;;;;;;496.52;170.57;;;;;;;0.16;100.00;100534.00;5053349;28;20486;-49
2022/12/09 05:28:59;;;;;;;491.30;171.93;;;;;;;0.16;100.00;100535.69;5053066;28;20090;-47
2022/12/09 05:31:25;;;;;;;492.25;173.77;;;;;;;0.18;100.00;100531.56;5053429;28;20372;-47
2022/12/09 05:33:50;;;;;;;461.13;171.45;;;;;;;0.22;100.00;100532.66;5053058;28;20032;-49
2022/12/09 05:36:19;;;;;;;457.83;168.50;;;;;;;0.27;100.00;100527.13;5052722;28;20021;-48
2022/12/09 05:38:44;;;;;;;489.95;176.02;;;;;;;0.27;100.00;100538.91;5052931;28;20148;-48
2022/12/09 05:41:10;;;;;;;470.75;169.82;;;;;;;0.30;100.00;100531.53;5053277;28;20053;-49
2022/12/09 05:43:36;;;;;;;481.00;177.10;;;;;;;0.27;100.00;100532.22;5051249;28;20049;-48
2022/12/09 05:46:02;;;;;;;508.60;173.45;;;;;;;0.26;100.00;100534.63;5053199;28;20487;-49
2022/12/09 05:48:27;;;;;;;480.95;170.23;;;;;;;0.24;100.00;100537.06;5052665;28;20029;-45
2022/12/09 05:51:21;;;;;;;474.20;171.70;;;;;;;0.33;100.00;100547.78;5052513;28;20107;-48
2022/12/09 05:53:46;;;;;;;491.40;172.88;;;;;;;0.30;100.00;100540.00;5050398;28;20033;-50
2022/12/09 05:56:17;;;;;;;510.40;173.52;;;;;;;0.25;100.00;100533.75;5052616;28;20108;-47
2022/12/09 05:58:42;;;;;;;490.45;171.32;;;;;;;0.23;100.00;100532.75;5052416;28;20056;-49
2022/12/09 06:01:08;;;;;;;464.80;165.68;;;;;;;0.23;100.00;100532.75;5052775;28;20071;-49
2022/12/09 06:03:34;;;;;;;474.67;172.88;;;;;;;0.28;100.00;100528.88;5052160;28;20032;-48
2022/12/09 06:06:11;;;;;;;503.98;175.73;;;;;;;0.23;100.00;100525.16;5052764;28;20048;-48
2022/12/09 06:08:37;;;;;;;500.23;169.95;;;;;;;0.18;100.00;100526.50;5052412;28;20384;-49
2022/12/09 06:11:03;;;;;;;449.73;165.85;;;;;;;0.15;100.00;100523.78;5052336;28;20032;-49
2022/12/09 06:13:28;;;;;;;460.73;170.23;;;;;;;0.19;100.00;100518.13;5052544;28;20037;-48
2022/12/09 06:15:53;;;;;;;479.05;171.18;;;;;;;0.24;100.00;100528.59;5052442;28;20425;-47
2022/12/09 06:18:18;;;;;;;468.50;168.13;;;;;;;0.16;100.00;100523.00;5052401;28;20496;-48
2022/12/09 06:20:44;;;;;;;470.85;171.07;;;;;;;0.20;100.00;100522.44;5052316;28;20029;-49
2022/12/09 06:23:09;;;;;;;443.42;155.60;;;;;;;0.10;100.00;100527.66;5052815;28;20028;-49
2022/12/09 06:25:34;;;;;;;419.05;155.73;;;;;;;0.06;100.00;100526.56;5051873;28;20029;-49
2022/12/09 06:28:00;;;;;;;432.95;159.98;;;;;;;0.05;100.00;100524.81;5052283;28;20017;-48
2022/12/09 06:30:25;;;;;;;420.08;158.65;;;;;;;0.07;100.00;100524.94;5052527;28;20060;-50
2022/12/09 06:32:50;;;;;;;456.95;160.95;;;;;;;0.09;100.00;100525.91;5051718;28;20176;-49
2022/12/09 06:35:15;;;;;;;423.15;156.35;;;;;;;0.02;100.00;100521.22;5052633;28;20128;-49
2022/12/09 06:37:41;;;;;;;451.17;160.02;;;;;;;-0.01;100.00;100522.75;5052129;28;20029;-47
2022/12/09 06:40:07;;;;;;;427.75;158.18;;;;;;;0.01;100.00;100527.94;5052344;28;20036;-49
2022/12/09 06:42:32;;;;;;;427.42;159.00;;;;;;;0.01;100.00;100527.06;5052102;28;20357;-45
2022/12/09 06:44:57;;;;;;;410.90;154.27;;;;;;;0.06;100.00;100534.19;5051859;28;20023;-48
2022/12/09 06:47:22;;;;;;;435.17;157.73;;;;;;;0.05;100.00;100534.09;5052333;28;20476;-47
2022/12/09 06:49:48;;;;;;;473.98;162.68;;;;;;;0.05;100.00;100523.94;5052316;28;20112;-49
2022/12/09 06:52:13;;;;;;;454.95;162.00;;;;;;;0.11;100.00;100531.97;5052001;28;20411;-48
2022/12/09 06:54:38;;;;;;;476.23;168.05;;;;;;;0.13;100.00;100528.75;5052659;28;20017;-47
2022/12/09 06:57:03;;;;;;;481.48;166.77;;;;;;;0.14;100.00;100529.63;5056486;28;20025;-49
2022/12/09 06:59:29;;;;;;;453.02;166.63;;;;;;;0.12;100.00;100527.00;5055877;28;20032;-48
2022/12/09 07:01:54;;;;;;;421.83;155.88;;;;;;;0.09;100.00;100530.97;5055751;28;20430;-49
2022/12/09 07:04:20;;;;;;;398.33;151.10;;;;;;;0.01;100.00;100534.66;5056187;28;20047;-46
2022/12/09 07:06:45;;;;;;;396.92;151.52;;;;;;;0.01;100.00;100538.06;5055350;28;20469;-45
2022/12/09 07:09:14;;;;;;;401.00;150.00;;;;;;;0.03;100.00;100535.63;5055880;28;20025;-47
2022/12/09 07:11:41;;;;;;;396.10;146.32;;;;;;;-0.03;100.00;100537.00;5055767;28;20032;-48
2022/12/09 07:14:07;;;;;;;379.23;145.10;;;;;;;0.01;100.00;100543.13;5055383;28;20039;-46
2022/12/09 07:16:33;;;;;;;393.30;149.48;;;;;;;-0.06;100.00;100536.78;5055314;28;20461;-48
2022/12/09 07:18:59;;;;;;;389.63;146.52;;;;;;;-0.03;100.00;100541.19;5056002;28;20025;-47
2022/12/09 07:21:25;;;;;;;365.80;143.85;;;;;;;-0.11;100.00;100545.72;5055438;28;20044;-49
2022/12/09 07:23:50;;;;;;;346.88;141.30;;;;;;;-0.08;100.00;100540.88;5055268;28;20068;-49
2022/12/09 07:26:16;;;;;;;358.30;144.15;;;;;;;-0.08;100.00;100548.47;5055735;28;20486;-49
2022/12/09 07:28:42;;;;;;;330.90;138.93;;;;;;;-0.20;100.00;100542.56;5054744;28;20520;-47
2022/12/09 07:31:23;;;;;;;337.02;138.30;;;;;;;-0.22;100.00;100551.72;5055486;28;20163;-49
2022/12/09 07:33:49;;;;;;;345.33;143.20;;;;;;;-0.28;100.00;100551.31;5055472;28;20090;-48
2022/12/09 07:36:15;;;;;;;352.70;144.25;;;;;;;-0.30;100.00;100542.72;5054902;28;20049;-48
2022/12/09 07:38:40;;;;;;;349.55;141.90;;;;;;;-0.35;100.00;100557.59;5055195;28;20427;-46
2022/12/09 07:41:07;;;;;;;356.73;146.88;;;;;;;-0.41;100.00;100563.13;5054885;28;20017;-48
2022/12/09 07:43:34;;;;;;;330.48;138.00;;;;;;;-0.42;100.00;100571.50;5055118;28;20059;-49
2022/12/09 07:46:04;;;;;;;335.23;139.00;;;;;;;-0.50;100.00;100567.56;5055542;28;20060;-49
2022/12/09 07:48:29;;;;;;;327.17;138.60;;;;;;;-0.52;100.00;100571.63;5054925;28;20071;-50
2022/12/09 07:51:02;;;;;;;334.42;138.05;;;;;;;-0.61;100.00;100569.31;5054852;28;20405;-47
2022/12/09 07:53:28;;;;;;;345.20;142.60;;;;;;;-0.61;100.00;100568.47;5055189;28;20024;-45
2022/12/09 07:55:54;;;;;;;346.23;138.52;;;;;;;-0.72;100.00;100565.19;5054356;28;20211;-48
2022/12/09 07:58:19;;;;;;;332.92;138.52;;;;;;;-0.76;100.00;100569.16;5055125;28;20100;-48
2022/12/09 08:00:44;;;;;;;337.55;139.02;;;;;;;-0.88;100.00;100568.25;5054992;28;20100;-45
2022/12/09 08:03:12;;;;;;;311.48;133.95;;;;;;;-0.98;100.00;100571.81;5054620;28;20415;-48
2022/12/09 08:05:52;;;;;;;342.40;142.15;;;;;;;-0.95;100.00;100572.03;5053939;28;20063;-46
2022/12/09 08:08:17;;;;;;;352.73;141.98;;;;;;;-1.04;100.00;100569.69;5054471;28;20040;-45
2022/12/09 08:10:45;;;;;;;352.30;142.52;;;;;;;-1.05;100.00;100574.66;5054112;28;20041;-49
2022/12/09 08:13:10;;;;;;;404.40;159.05;;;;;;;-1.00;100.00;100565.75;5054610;28;20460;-47
2022/12/09 08:15:35;;;;;;;405.65;155.95;;;;;;;-1.05;100.00;100569.59;5054693;28;20031;-49
2022/12/09 08:18:01;;;;;;;387.95;154.70;;;;;;;-1.04;100.00;100572.22;5054008;28;20385;-48
2022/12/09 08:20:26;;;;;;;378.88;147.63;;;;;;;-1.05;100.00;100578.06;5054713;28;20029;-48
2022/12/09 08:22:52;;;;;;;404.80;153.55;;;;;;;-1.06;100.00;100573.78;5054301;28;20120;-46
2022/12/09 08:25:17;;;;;;;394.77;155.93;;;;;;;-1.08;100.00;100574.44;5054143;28;20057;-48
2022/12/09 08:27:42;;;;;;;402.40;155.00;;;;;;;-1.00;100.00;100571.69;5054533;28;20021;-49
2022/12/09 08:30:08;;;;;;;404.20;153.38;;;;;;;-1.02;100.00;100570.72;5054595;28;20376;-47
2022/12/09 08:32:33;;;;;;;395.80;155.45;;;;;;;-1.04;100.00;100574.75;5053628;28;20120;-49
2022/12/09 08:34:59;;;;;;;414.52;163.00;;;;;;;-1.00;100.00;100581.78;5054525;28;20112;-48
2022/12/09 08:37:24;;;;;;;406.42;155.80;;;;;;;-1.03;100.00;100574.00;5053910;28;20017;-48
2022/12/09 08:39:49;;;;;;;415.48;157.15;;;;;;;-1.05;100.00;100575.53;5053813;28;20734;-49
2022/12/09 08:42:15;;;;;;;416.60;155.65;;;;;;;-1.04;100.00;100562.13;5054419;28;20059;-49
2022/12/09 08:44:40;;;;;;;420.48;157.52;;;;;;;-1.02;100.00;100570.72;5053619;28;20087;-48
2022/12/09 08:47:05;;;;;;;445.02;166.15;;;;;;;-0.97;100.00;100567.63;5054110;28;20122;-46
2022/12/09 08:49:31;;;;;;;444.55;167.00;;;;;;;-0.84;100.00;100567.72;5054205;28;20049;-50
2022/12/09 08:51:56;;;;;;;428.33;161.25;;;;;;;-0.91;100.00;100563.00;5053564;28;20021;-48
2022/12/09 08:54:22;;;;;;;446.92;155.13;;;;;;;-0.92;100.00;100571.34;5053854;28;20033;-49
2022/12/09 08:56:49;;;;;;;456.05;163.40;;;;;;;-0.94;100.00;100566.19;5053848;28;20025;-49
2022/12/09 08:59:16;;;;;;;449.73;166.35;;;;;;;-0.88;100.00;100578.38;5053396;28;20480;-46
2022/12/09 09:01:41;;;;;;;425.83;158.20;;;;;;;-0.91;100.00;100573.13;5053438;28;20029;-49
2022/12/09 09:04:09;;;;;;;420.02;155.18;;;;;;;-0.88;100.00;100576.75;5053761;28;20164;-48
2022/12/09 09:06:37;;;;;;;440.85;160.20;;;;;;;-0.87;100.00;100578.50;5052963;28;20028;-48
2022/12/09 09:09:04;;;;;;;423.15;154.80;;;;;;;-0.86;100.00;100571.78;5053820;28;20032;-49
2022/12/09 09:11:29;;;;;;;520.55;175.90;;;;;;;-0.69;100.00;100573.84;5053919;28;20096;-49
2022/12/09 09:13:55;;;;;;;469.90;170.10;;;;;;;-0.70;100.00;100574.66;5053079;28;20112;-49
2022/12/09 09:16:22;;;;;;;442.48;159.88;;;;;;;-0.67;100.00;100589.16;5053614;28;20027;-49
2022/12/09 09:18:48;;;;;;;445.95;160.88;;;;;;;-0.68;100.00;100585.75;5053223;28;20071;-49
2022/12/09 09:21:16;;;;;;;463.27;158.35;;;;;;;-0.63;100.00;100586.06;5052641;28;20453;-49
2022/12/09 09:23:42;;;;;;;;;;;;;;;-0.48;100.00;100586.25;5053854;28;20024;-48
2022/12/09 09:26:15;;;;;;;376.60;143.43;;;;;;;-0.72;100.00;100586.31;5053667;28;20003;-49
2022/12/09 09:28:41;;;;;;;375.73;142.60;;;;;;;-0.68;100.00;100583.22;5052520;28;20052;-49
2022/12/09 09:31:09;;;;;;;394.73;150.13;;;;;;;-0.58;100.00;100594.88;5053516;28;20098;-48
2022/12/09 09:33:34;;;;;;;448.48;160.82;;;;;;;-0.44;100.00;100585.72;5052477;28;20029;-48
2022/12/09 09:36:02;;;;;;;495.95;167.77;;;;;;;-0.35;100.00;100595.56;5053351;28;20100;-50
2022/12/09 09:38:28;;;;;;;397.95;152.40;;;;;;;-0.54;100.00;100593.44;5053131;28;20028;-48
2022/12/09 09:40:54;;;;;;;434.20;158.05;;;;;;;-0.42;100.00;100596.81;5052560;28;20028;-48
2022/12/09 09:43:24;;;;;;;416.27;152.63;;;;;;;-0.29;100.00;100597.66;5053043;28;20059;-49
2022/12/09 09:45:51;;;;;;;406.70;152.07;;;;;;;-0.36;100.00;100594.72;5052800;28;20021;-48
2022/12/09 09:48:21;;;;;;;383.02;146.38;;;;;;;-0.29;100.00;100590.06;5052556;28;20044;-49
2022/12/09 09:50:55;;;;;;;423.10;150.10;;;;;;;-0.11;100.00;100593.00;5052460;28;20120;-49
2022/12/09 09:53:28;;;;;;;391.00;149.55;;;;;;;-0.09;100.00;100586.34;5052823;28;20380;-49
2022/12/09 09:56:06;;;;;;;316.77;126.65;;;;;;;-0.19;100.00;100588.25;5052349;28;20082;-49
2022/12/09 09:58:46;;;;;;;315.10;133.15;;;;;;;-0.12;100.00;100581.09;5052574;28;20095;-45
2022/12/09 10:01:14;;;;;;;361.55;142.82;;;;;;;0.07;100.00;100584.09;5053108;28;20025;-49
2022/12/09 10:03:48;;;;;;;378.08;140.82;;;;;;;0.14;100.00;100581.22;5051505;28;20482;-49
2022/12/09 10:06:32;;;;;;;333.77;135.45;;;;;;;0.16;100.00;100584.69;5052955;28;20488;-50
2022/12/09 10:09:07;;;;;;;353.60;134.80;;;;;;;0.25;100.00;100584.44;5052368;28;20036;-50
2022/12/09 10:11:51;;;;;;;402.35;149.02;;;;;;;0.51;100.00;100587.81;5052496;28;20170;-50
2022/12/09 10:14:20;;;;;;;373.52;143.07;;;;;;;0.68;100.00;100577.91;5052952;28;20066;-47
2022/12/09 10:17:15;;;;;;;366.23;144.07;;;;;;;0.77;100.00;100581.91;5052126;28;20021;-50
2022/12/09 10:19:47;;;;;;;304.80;127.13;;;;;;;0.61;100.00;100585.13;5052446;28;20397;-48
2022/12/09 10:22:16;;;;;;;321.42;131.32;;;;;;;0.58;100.00;100582.38;5052560;28;20541;-47
2022/12/09 10:25:15;;;;;;;318.45;131.32;;;;;;;0.67;100.00;100583.75;5052078;28;20060;-49
2022/12/09 10:27:47;;;;;;;319.00;130.63;;;;;;;0.53;100.00;100583.75;5052441;28;20087;-50
2022/12/09 10:30:15;;;;;;;310.58;125.03;;;;;;;0.34;100.00;100581.66;5056370;28;20025;-50
2022/12/09 10:32:41;;;;;;;310.33;125.68;;;;;;;0.26;100.00;100581.13;5058895;28;20053;-51
2022/12/09 10:35:17;;;;;;;318.40;123.82;;;;;;;0.19;100.00;100583.16;5059263;28;20052;-49
2022/12/09 10:37:42;;;;;;;299.92;120.35;;;;;;;0.16;100.00;100581.31;5058306;28;20065;-49
2022/12/09 10:40:10;;;;;;;336.52;132.70;;;;;;;0.22;100.00;100579.19;5058929;28;20068;-49
2022/12/09 10:45:31;;;;;;;365.17;134.50;;;;;;;0.44;100.00;100581.47;5058246;28;20068;-50
2022/12/09 10:47:57;;;;;;;376.20;138.48;;;;;;;0.58;100.00;100574.78;5059155;28;20032;-49
2022/12/09 10:50:32;;;;;;;349.30;133.98;;;;;;;0.55;100.00;100578.78;5059102;28;20108;-49
2022/12/09 10:53:05;;;;;;;339.65;133.93;;;;;;;0.63;100.00;100573.44;5058137;28;20491;-51
2022/12/09 10:55:37;;;;;;;311.13;126.15;;;;;;;0.62;100.00;100570.75;5059248;28;20047;-47
2022/12/09 10:58:19;;;;;;;318.33;127.15;;;;;;;0.81;100.00;100572.84;5058661;28;20028;-50
2022/12/09 11:01:05;;;;;;;317.73;126.40;;;;;;;0.91;100.00;100564.16;5058388;28;20411;-48